Time;durP1;ratioP1;P1;durP2;ratioP2;P2;SDS_P1;SDS_P2;PMS_P1;PMS_P2;Temp;Humidity;BMP_temperature;BMP_pressure;BME280_temperature;BME280_humidity;BME280_pressure;Samples;Min_cycle;Max_cycle;Signal;HPM_P1;HPM_P2
2020/12/17 00:01:22;;;;;;;35.95;22.17;;;;;;;3.92;73.64;97940.98;1718627;82;21144;-84
2020/12/17 00:03:53;;;;;;;31.77;21.42;;;;;;;4.02;73.55;97933.19;1746336;82;21265;-80
2020/12/17 00:06:24;;;;;;;40.78;24.18;;;;;;;4.09;73.36;97939.45;1743729;82;21128;-80
2020/12/17 00:08:51;;;;;;;37.95;22.17;;;;;;;4.17;73.22;97939.98;1770911;81;21572;-84
2020/12/17 00:11:18;;;;;;;41.15;26.10;;;;;;;4.17;73.08;97934.33;1765857;81;21143;-86
2020/12/17 00:13:46;;;;;;;41.68;25.02;;;;;;;4.20;72.93;97933.34;1765738;81;21548;-86
2020/12/17 00:16:13;;;;;;;42.08;25.92;;;;;;;4.19;72.64;97942.08;1765802;81;21154;-86
2020/12/17 00:18:41;;;;;;;41.28;26.00;;;;;;;4.17;72.57;97947.38;1765696;81;21131;-86
2020/12/17 00:21:08;;;;;;;41.05;26.75;;;;;;;4.15;72.47;97949.19;1766096;81;21142;-86
2020/12/17 00:23:35;;;;;;;42.62;26.27;;;;;;;4.11;72.26;97954.59;1746760;82;21578;-85
2020/12/17 00:26:03;;;;;;;42.83;26.73;;;;;;;4.08;72.35;97953.41;1766010;81;21139;-85
2020/12/17 00:28:30;;;;;;;41.70;25.95;;;;;;;4.04;72.32;97955.29;1716489;82;21178;-86
2020/12/17 00:30:58;;;;;;;43.08;26.20;;;;;;;4.01;72.35;97954.96;1742575;82;21170;-84
2020/12/17 00:33:25;;;;;;;41.42;26.30;;;;;;;3.99;72.28;97965.08;1742891;82;21160;-85
2020/12/17 00:35:53;;;;;;;42.20;25.50;;;;;;;3.93;72.41;97965.30;1763881;80;21140;-89
2020/12/17 00:38:24;;;;;;;44.45;27.25;;;;;;;3.88;72.40;97962.43;1773759;81;21364;-87
2020/12/17 00:40:51;;;;;;;41.98;27.37;;;;;;;3.81;72.43;97958.34;1773732;81;21696;-83
2020/12/17 00:43:19;;;;;;;44.42;24.50;;;;;;;3.78;72.55;97961.52;1773687;81;21262;-81
2020/12/17 00:45:48;;;;;;;45.23;26.30;;;;;;;3.72;72.69;97954.34;1762627;81;21224;-78
2020/12/17 00:48:18;;;;;;;42.67;25.37;;;;;;;3.74;72.44;97957.75;1743311;82;21106;-83
2020/12/17 00:50:52;;;;;;;45.50;26.75;;;;;;;3.66;72.39;97951.13;1743195;82;21296;-81
2020/12/17 00:53:46;;;;;;;;;;;;;;;3.55;72.45;97948.94;1744078;82;21264;-82
2020/12/17 00:56:13;;;;;;;43.50;24.57;;;;;;;3.51;72.93;97944.73;1755345;81;20153;-87
2020/12/17 00:58:41;;;;;;;43.60;25.17;;;;;;;3.50;73.02;97954.33;1768195;81;21151;-88
2020/12/17 01:01:09;;;;;;;45.63;26.52;;;;;;;3.49;72.88;97947.84;1770107;81;21139;-88
2020/12/17 01:03:36;;;;;;;41.83;24.60;;;;;;;3.46;73.00;97950.13;1771209;81;21258;-80
2020/12/17 01:06:09;;;;;;;44.60;27.15;;;;;;;3.47;73.27;97945.31;1763986;81;21307;-82
2020/12/17 01:08:36;;;;;;;43.92;25.25;;;;;;;3.56;73.51;97948.03;1760612;78;21171;-81
2020/12/17 01:11:06;;;;;;;45.75;26.00;;;;;;;3.64;73.56;97950.33;1743381;82;21270;-81
2020/12/17 01:13:35;;;;;;;45.00;25.70;;;;;;;3.70;73.53;97953.55;1743279;82;21289;-84
2020/12/17 01:16:02;;;;;;;48.83;26.17;;;;;;;3.74;73.38;97956.88;1743502;82;21171;-79
2020/12/17 01:18:41;;;;;;;45.10;26.68;;;;;;;3.84;73.58;97953.02;1718224;82;21144;-82
2020/12/17 01:21:10;;;;;;;41.15;24.43;;;;;;;3.94;73.29;97949.60;1739707;82;21151;-87
2020/12/17 01:23:38;;;;;;;52.43;25.25;;;;;;;4.01;73.40;97948.88;1739490;82;21154;-87
2020/12/17 01:26:12;;;;;;;45.73;26.77;;;;;;;4.10;73.26;97942.45;1756219;81;21147;-84
2020/12/17 01:28:42;;;;;;;45.90;27.37;;;;;;;4.12;73.11;97940.64;1770376;81;21116;-88
2020/12/17 01:31:16;;;;;;;48.73;28.00;;;;;;;4.14;72.73;97940.97;1772507;81;21120;-87
2020/12/17 01:33:50;;;;;;;44.67;25.40;;;;;;;4.13;72.82;97935.34;1757015;81;21287;-87
2020/12/17 01:36:19;;;;;;;45.65;27.82;;;;;;;4.08;72.35;97931.22;1750721;82;21199;-85
2020/12/17 01:38:47;;;;;;;48.23;28.10;;;;;;;3.97;72.38;97933.81;1736272;82;21294;-87
2020/12/17 01:41:14;;;;;;;37.17;19.20;;;;;;;3.91;72.55;97936.67;1734014;83;21306;-79
2020/12/17 01:43:46;;;;;;;47.05;26.48;;;;;;;3.84;72.24;97931.31;1730434;83;21177;-86
2020/12/17 01:46:15;;;;;;;51.08;28.65;;;;;;;3.62;72.43;97934.75;1742710;82;21101;-77
2020/12/17 01:48:43;;;;;;;48.40;27.32;;;;;;;3.54;72.71;97937.64;1751280;82;21086;-79
2020/12/17 01:51:11;;;;;;;47.73;28.00;;;;;;;3.48;72.92;97939.19;1751272;81;21244;-79
2020/12/17 01:53:41;;;;;;;51.83;29.48;;;;;;;3.46;72.99;97950.59;1750996;81;21232;-82
2020/12/17 01:56:18;;;;;;;51.20;27.60;;;;;;;3.43;73.16;97959.38;1751110;81;21117;-80
2020/12/17 01:58:54;;;;;;;47.75;28.27;;;;;;;3.42;73.32;97955.91;1750243;82;21149;-78
2020/12/17 02:01:33;;;;;;;49.60;28.80;;;;;;;3.44;73.38;97959.31;1814648;79;24935;-86
2020/12/17 02:04:03;;;;;;;49.30;28.95;;;;;;;3.37;73.41;97953.94;1759111;81;21159;-87
2020/12/17 02:06:34;;;;;;;51.13;28.77;;;;;;;3.38;73.52;97958.69;1783529;81;21155;-77
2020/12/17 02:09:03;;;;;;;49.65;27.62;;;;;;;3.37;73.50;97952.64;1763815;81;21132;-80
2020/12/17 02:11:31;;;;;;;53.08;28.85;;;;;;;3.37;73.54;97958.29;1771398;81;21596;-88
2020/12/17 02:13:58;;;;;;;51.37;28.62;;;;;;;3.39;73.63;97951.27;1748188;82;21171;-89
2020/12/17 02:16:26;;;;;;;60.65;29.77;;;;;;;3.43;73.75;97938.06;1758454;81;21130;-84
2020/12/17 02:18:53;;;;;;;50.88;28.92;;;;;;;3.49;73.78;97935.68;1761070;81;21186;-87
2020/12/17 02:21:20;;;;;;;53.33;27.65;;;;;;;3.58;73.96;97934.46;1745033;81;21281;-86
2020/12/17 02:23:48;;;;;;;49.70;28.20;;;;;;;3.60;73.68;97935.25;1770812;81;21143;-87
2020/12/17 02:26:16;;;;;;;50.40;28.60;;;;;;;3.61;73.69;97937.42;1774615;80;21266;-77
2020/12/17 02:28:54;;;;;;;50.28;28.17;;;;;;;3.62;73.70;97937.83;1774474;81;21266;-79
2020/12/17 02:31:30;;;;;;;53.00;27.55;;;;;;;3.66;73.80;97935.04;1766609;81;21528;-88
2020/12/17 02:33:58;;;;;;;48.42;27.90;;;;;;;3.74;73.93;97940.80;1764808;81;21246;-78
2020/12/17 02:36:29;;;;;;;48.20;26.15;;;;;;;3.82;73.92;97934.43;1740584;82;21156;-87
2020/12/17 02:38:56;;;;;;;48.78;27.58;;;;;;;3.95;73.90;97940.00;1761047;81;21104;-87
2020/12/17 02:41:24;;;;;;;51.28;28.70;;;;;;;3.90;73.67;97938.41;1752992;81;21194;-85
2020/12/17 02:43:52;;;;;;;53.23;30.75;;;;;;;3.94;73.82;97931.78;1750601;82;21175;-87
2020/12/17 02:46:21;;;;;;;51.23;30.27;;;;;;;3.93;73.53;97940.52;1747382;82;21534;-83
2020/12/17 02:48:53;;;;;;;53.83;30.52;;;;;;;3.99;73.64;97942.42;1756682;81;21566;-83
2020/12/17 02:51:21;;;;;;;53.15;30.15;;;;;;;4.06;73.46;97942.56;1764692;81;21394;-78
2020/12/17 02:53:51;;;;;;;49.70;30.45;;;;;;;4.11;73.29;97937.63;1774313;81;21157;-83
2020/12/17 02:56:21;;;;;;;50.85;29.67;;;;;;;4.10;73.02;97936.77;1774273;81;21132;-83
2020/12/17 02:58:51;;;;;;;52.13;28.12;;;;;;;4.13;73.03;97937.13;1754915;81;21702;-86
2020/12/17 03:01:20;;;;;;;58.25;31.02;;;;;;;4.12;72.72;97934.11;1729304;82;21232;-85
2020/12/17 03:03:48;;;;;;;47.20;26.52;;;;;;;4.01;72.74;97938.00;1719039;83;21130;-86
2020/12/17 03:06:18;;;;;;;52.85;28.92;;;;;;;3.97;72.56;97935.11;1810735;79;21261;-81
2020/12/17 03:09:07;;;;;;;48.73;28.27;;;;;;;3.82;72.46;97934.43;1823756;78;21247;-81
2020/12/17 03:11:47;;;;;;;50.38;28.60;;;;;;;3.69;72.69;97930.16;1823296;78;21679;-82
2020/12/17 03:14:15;;;;;;;49.93;28.13;;;;;;;3.64;73.07;97934.24;1823204;79;21116;-81
2020/12/17 03:16:42;;;;;;;53.75;27.15;;;;;;;3.54;72.91;97935.50;1796226;78;21132;-79
2020/12/17 03:19:13;;;;;;;50.43;27.02;;;;;;;3.44;73.30;97933.25;1790929;80;21305;-80
2020/12/17 03:21:40;;;;;;;55.92;27.73;;;;;;;3.38;73.47;97928.72;1791146;80;21159;-80
2020/12/17 03:24:10;;;;;;;52.08;27.27;;;;;;;3.36;73.57;97928.78;1791166;80;21088;-80
2020/12/17 03:26:43;;;;;;;64.70;30.48;;;;;;;3.28;73.51;97930.83;1791120;80;21258;-79
2020/12/17 03:29:11;;;;;;;49.83;27.05;;;;;;;3.21;74.04;97929.34;1791174;80;21140;-78
2020/12/17 03:31:38;;;;;;;48.60;27.52;;;;;;;3.19;74.10;97929.41;1791201;80;21280;-79
2020/12/17 03:34:06;;;;;;;55.05;28.77;;;;;;;3.23;74.46;97928.83;1760574;80;21241;-78
2020/12/17 03:36:33;;;;;;;59.05;28.95;;;;;;;3.22;74.42;97931.91;1791216;80;21565;-79
2020/12/17 03:39:05;;;;;;;53.00;29.50;;;;;;;3.24;74.53;97935.75;1791027;80;21258;-79
2020/12/17 03:41:32;;;;;;;53.80;30.95;;;;;;;3.30;74.51;97930.30;1791158;80;21325;-77
2020/12/17 03:44:10;;;;;;;51.28;27.65;;;;;;;3.31;74.51;97920.74;1787421;80;21565;-82
2020/12/17 03:46:37;;;;;;;46.50;26.10;;;;;;;3.39;74.61;97914.78;1791884;80;21112;-89
2020/12/17 03:49:05;;;;;;;39.20;21.17;;;;;;;3.44;74.57;97916.30;1773096;80;21581;-85
2020/12/17 03:51:32;;;;;;;51.18;27.85;;;;;;;3.46;74.52;97916.70;1788461;80;21140;-86
2020/12/17 03:54:00;;;;;;;55.55;31.82;;;;;;;3.34;74.50;97917.56;1787479;80;21140;-87
2020/12/17 03:56:27;;;;;;;58.30;31.12;;;;;;;3.26;74.87;97910.48;1787256;80;21139;-87
2020/12/17 03:58:54;;;;;;;58.20;30.25;;;;;;;3.11;75.34;97914.05;1789185;80;21144;-88
2020/12/17 04:01:22;;;;;;;53.85;27.95;;;;;;;2.96;76.14;97922.00;1795500;80;21148;-86
2020/12/17 04:03:53;;;;;;;55.90;30.80;;;;;;;2.88;75.66;97919.27;1796578;80;21553;-86
2020/12/17 04:06:20;;;;;;;51.80;29.30;;;;;;;2.71;76.91;97923.76;1796835;80;21763;-84
2020/12/17 04:08:49;;;;;;;59.75;30.52;;;;;;;2.67;76.11;97926.09;1797943;79;21135;-78
2020/12/17 04:11:17;;;;;;;54.45;27.05;;;;;;;2.64;76.32;97925.75;1799525;80;21250;-77
2020/12/17 04:13:44;;;;;;;57.88;29.87;;;;;;;2.64;76.81;97924.45;1799926;80;21253;-79
2020/12/17 04:16:25;;;;;;;53.63;28.50;;;;;;;2.56;77.98;97929.05;1799581;80;21112;-78
2020/12/17 04:18:52;;;;;;;53.08;26.27;;;;;;;2.55;76.53;97927.37;1799486;80;21277;-78
2020/12/17 04:21:21;;;;;;;52.33;26.60;;;;;;;2.55;76.97;97932.58;1796080;80;21148;-86
2020/12/17 04:23:48;;;;;;;57.08;26.73;;;;;;;2.49;77.54;97928.43;1796270;80;21133;-87
2020/12/17 04:26:16;;;;;;;53.92;27.45;;;;;;;2.52;76.97;97927.00;1799481;80;21191;-78
2020/12/17 04:28:43;;;;;;;35.95;18.48;;;;;;;2.52;78.50;97927.47;1799385;80;21526;-78
2020/12/17 04:31:20;;;;;;;57.20;27.52;;;;;;;2.54;77.61;97930.41;1799730;80;21320;-80
2020/12/17 04:33:47;;;;;;;57.88;27.48;;;;;;;2.50;78.08;97925.77;1796414;80;21209;-85
2020/12/17 04:36:16;;;;;;;50.78;27.52;;;;;;;2.48;77.46;97922.35;1799367;80;21155;-78
2020/12/17 04:38:46;;;;;;;52.73;27.55;;;;;;;2.53;77.23;97920.06;1799266;80;21254;-79
2020/12/17 04:41:18;;;;;;;53.08;26.85;;;;;;;2.58;77.38;97923.34;1796107;80;21557;-79
2020/12/17 04:43:47;;;;;;;52.15;27.48;;;;;;;2.54;77.58;97923.90;1770053;80;21581;-84
2020/12/17 04:46:19;;;;;;;51.88;26.95;;;;;;;2.53;78.02;97916.16;1796372;78;21135;-86
2020/12/17 04:48:52;;;;;;;53.87;27.73;;;;;;;2.48;77.99;97919.75;1799359;80;21293;-78
2020/12/17 04:51:21;;;;;;;51.88;27.67;;;;;;;2.41;78.77;97926.55;1796522;80;21172;-82
2020/12/17 04:53:51;;;;;;;40.20;21.90;;;;;;;2.41;77.90;97928.68;1796298;80;21135;-79
2020/12/17 04:56:19;;;;;;;50.25;27.48;;;;;;;2.45;77.26;97934.63;1796086;80;21135;-85
2020/12/17 04:58:49;;;;;;;51.33;23.07;;;;;;;2.47;77.36;97934.97;1798696;80;21116;-80
2020/12/17 05:01:20;;;;;;;48.95;25.12;;;;;;;2.57;77.39;97935.95;1782786;79;21274;-78
2020/12/17 05:03:49;;;;;;;52.20;26.42;;;;;;;2.65;76.74;97936.53;1767743;81;21282;-80
2020/12/17 05:06:25;;;;;;;47.98;25.80;;;;;;;2.74;76.81;97939.28;1781288;79;21596;-80
2020/12/17 05:08:55;;;;;;;48.63;24.98;;;;;;;2.75;76.73;97934.47;1787161;80;21758;-81
2020/12/17 05:11:28;;;;;;;47.48;19.73;;;;;;;2.71;77.07;97932.87;1789195;80;21747;-77
2020/12/17 05:13:56;;;;;;;54.70;26.48;;;;;;;2.67;77.23;97928.22;1786975;80;21573;-79
2020/12/17 05:16:24;;;;;;;58.45;28.60;;;;;;;2.58;76.67;97921.61;1787960;79;21143;-82
2020/12/17 05:18:51;;;;;;;58.33;28.60;;;;;;;2.42;78.08;97913.90;1786728;80;21278;-81
2020/12/17 05:21:18;;;;;;;54.25;26.97;;;;;;;2.37;77.79;97921.87;1788780;79;21165;-81
2020/12/17 05:23:51;;;;;;;44.42;20.92;;;;;;;2.30;77.97;97922.98;1787177;80;21302;-81
2020/12/17 05:26:25;;;;;;;52.50;27.30;;;;;;;2.23;77.95;97920.19;1810516;79;21549;-84
2020/12/17 05:28:55;;;;;;;33.88;14.83;;;;;;;2.19;77.93;97927.25;1821967;79;21664;-79
2020/12/17 05:31:23;;;;;;;59.03;25.27;;;;;;;2.23;78.30;97934.50;1811266;78;21116;-86
2020/12/17 05:33:50;;;;;;;35.33;16.45;;;;;;;2.26;77.96;97941.75;1802423;79;21158;-84
2020/12/17 05:36:26;;;;;;;50.03;24.25;;;;;;;2.30;78.07;97949.00;1811751;79;21127;-77
2020/12/17 05:39:14;;;;;;;53.30;26.15;;;;;;;2.32;78.27;97955.01;1798436;79;21148;-80
2020/12/17 05:41:44;;;;;;;40.17;20.68;;;;;;;2.40;78.62;97955.59;1786717;79;21562;-84
2020/12/17 05:44:29;;;;;;;48.68;23.90;;;;;;;2.51;77.97;97966.94;1788730;80;21103;-77
2020/12/17 05:46:59;;;;;;;44.25;21.87;;;;;;;2.48;77.57;97957.48;1789468;80;21718;-76
2020/12/17 05:49:29;;;;;;;39.45;22.45;;;;;;;2.50;77.70;97965.27;1803060;79;21230;-79
2020/12/17 05:52:18;;;;;;;37.63;18.40;;;;;;;2.48;77.46;97970.50;1789575;80;21179;-81
2020/12/17 05:55:03;;;;;;;32.03;15.63;;;;;;;2.51;77.28;97965.64;1793564;79;21143;-85
2020/12/17 05:57:31;;;;;;;55.98;24.50;;;;;;;2.50;77.39;97961.36;1789389;80;21238;-82
2020/12/17 06:00:03;;;;;;;53.70;25.72;;;;;;;2.38;77.18;97975.61;1786743;80;21169;-77
2020/12/17 06:02:36;;;;;;;47.27;23.62;;;;;;;2.38;77.35;97974.78;1796931;80;21338;-76
2020/12/17 06:05:16;;;;;;;58.30;24.67;;;;;;;2.35;77.50;97978.34;1797353;80;21582;-79
2020/12/17 06:07:48;;;;;;;47.20;23.83;;;;;;;2.38;77.61;97988.63;1768702;80;21135;-77
2020/12/17 06:10:32;;;;;;;45.75;21.17;;;;;;;2.42;77.44;97995.44;1783176;78;21135;-77
2020/12/17 06:13:04;;;;;;;49.40;24.50;;;;;;;2.47;77.36;97996.13;1796547;78;21258;-80
2020/12/17 06:15:33;;;;;;;46.92;23.55;;;;;;;2.46;77.41;98000.09;1807226;78;21115;-83
2020/12/17 06:18:03;;;;;;;44.03;22.90;;;;;;;2.53;77.85;98004.19;1795384;79;21151;-86
2020/12/17 06:20:33;;;;;;;47.93;20.88;;;;;;;2.49;77.51;98013.85;1797758;80;21213;-79
2020/12/17 06:23:06;;;;;;;51.75;23.80;;;;;;;2.48;77.31;98015.22;1808860;78;21096;-85
2020/12/17 06:25:38;;;;;;;39.88;18.50;;;;;;;2.49;77.69;98013.02;1820554;78;21573;-80
2020/12/17 06:28:10;;;;;;;49.42;21.85;;;;;;;2.55;77.74;98023.21;1757513;81;21153;-78
2020/12/17 06:30:44;;;;;;;39.98;19.82;;;;;;;2.52;77.49;98028.51;1728572;83;21122;-83
2020/12/17 06:33:13;;;;;;;41.45;20.43;;;;;;;2.49;77.54;98035.97;1730350;83;21272;-85
2020/12/17 06:35:51;;;;;;;46.02;23.83;;;;;;;2.52;77.62;98021.16;1714982;82;21297;-83
2020/12/17 06:38:24;;;;;;;44.95;24.32;;;;;;;2.48;77.66;98020.42;1742282;82;21342;-79
2020/12/17 06:40:55;;;;;;;42.48;19.27;;;;;;;2.41;77.86;98021.06;1742326;82;21165;-76
2020/12/17 06:46:36;;;;;;;52.40;26.68;;;;;;;2.27;78.24;98015.00;1824009;77;24833;-83
2020/12/17 06:49:11;;;;;;;50.28;25.77;;;;;;;2.07;79.18;98022.58;1805888;78;21115;-83
2020/12/17 06:51:41;;;;;;;44.75;21.55;;;;;;;2.11;78.68;98033.30;1801656;80;21253;-81
2020/12/17 06:54:21;;;;;;;41.02;19.05;;;;;;;2.13;79.15;98029.75;1801140;80;21272;-78
2020/12/17 06:57:05;;;;;;;45.15;19.02;;;;;;;2.06;79.55;98024.34;1796911;80;21115;-84
2020/12/17 06:59:35;;;;;;;33.08;13.93;;;;;;;2.04;79.06;98023.53;1845055;78;21135;-86
2020/12/17 07:02:05;;;;;;;29.70;12.78;;;;;;;1.95;79.72;98035.05;1823063;78;21291;-78
2020/12/17 07:04:48;;;;;;;63.60;26.82;;;;;;;1.91;79.58;98029.98;1812736;78;21247;-82
2020/12/17 07:07:24;;;;;;;52.73;22.30;;;;;;;1.75;80.53;98031.77;1825202;78;21167;-85
2020/12/17 07:09:56;;;;;;;50.95;24.98;;;;;;;1.80;79.70;98027.72;1826330;79;21100;-80
2020/12/17 07:12:41;;;;;;;63.98;28.70;;;;;;;1.86;79.73;98029.70;1826079;78;21126;-79
2020/12/17 07:15:38;;;;;;;42.17;19.45;;;;;;;1.96;79.81;98022.92;1804170;78;21357;-81
2020/12/17 07:18:27;;;;;;;45.75;20.82;;;;;;;2.11;79.37;98021.13;1824151;77;24868;-80
2020/12/17 07:21:05;;;;;;;55.08;27.85;;;;;;;2.00;79.96;98024.08;1821176;78;21162;-76
2020/12/17 07:23:36;;;;;;;57.05;28.00;;;;;;;1.95;79.75;98025.11;1818571;79;21128;-80
2020/12/17 07:26:14;;;;;;;40.50;16.82;;;;;;;1.98;79.52;98030.23;1807433;78;21138;-81
2020/12/17 07:28:55;;;;;;;58.65;24.82;;;;;;;2.04;79.26;98032.63;1795628;80;21143;-82
2020/12/17 07:31:27;;;;;;;54.18;25.12;;;;;;;2.06;79.27;98034.74;1796627;80;21212;-81
2020/12/17 07:33:56;;;;;;;54.20;25.52;;;;;;;2.19;79.53;98033.45;1795701;78;21166;-81
2020/12/17 07:36:47;;;;;;;50.55;24.82;;;;;;;2.26;79.09;98036.71;1795600;79;21547;-78
2020/12/17 07:39:16;;;;;;;43.95;19.48;;;;;;;2.28;79.21;98032.31;1796725;80;21094;-78
2020/12/17 07:41:45;;;;;;;41.05;19.75;;;;;;;2.27;78.93;98024.11;1798424;78;21697;-81
2020/12/17 07:44:36;;;;;;;48.33;24.47;;;;;;;2.27;78.88;98021.51;1797330;80;21620;-83
2020/12/17 07:47:20;;;;;;;52.17;24.47;;;;;;;2.23;79.00;98021.19;1798306;80;21139;-81
2020/12/17 07:49:50;;;;;;;47.30;22.25;;;;;;;2.23;79.21;98017.28;1797461;80;21699;-79
2020/12/17 07:52:37;;;;;;;46.98;22.35;;;;;;;2.25;78.82;98017.26;1795761;80;21162;-84
2020/12/17 07:55:06;;;;;;;48.70;23.80;;;;;;;2.27;78.98;98017.61;1768253;80;21196;-84
2020/12/17 07:57:33;;;;;;;30.72;14.03;;;;;;;2.30;79.53;98023.16;1795673;80;21168;-82
2020/12/17 08:00:01;;;;;;;37.17;17.80;;;;;;;2.37;78.83;98022.05;1812535;78;21166;-85
2020/12/17 08:02:30;;;;;;;34.83;17.15;;;;;;;2.38;78.65;98025.52;1790085;80;21307;-81
2020/12/17 08:04:57;;;;;;;53.58;28.05;;;;;;;2.31;78.75;98032.23;1764884;81;21313;-81
2020/12/17 08:07:25;;;;;;;47.83;23.27;;;;;;;2.26;79.09;98038.48;1770548;81;21123;-81
2020/12/17 08:10:02;;;;;;;49.98;23.85;;;;;;;2.32;78.49;98031.77;1770596;81;21153;-80
2020/12/17 08:12:31;;;;;;;58.00;26.70;;;;;;;2.30;78.82;98027.92;1743354;81;21137;-78
2020/12/17 08:15:09;;;;;;;51.25;23.32;;;;;;;2.42;78.81;98037.52;1770625;81;21164;-81
2020/12/17 08:17:36;;;;;;;52.73;22.98;;;;;;;2.51;78.71;98046.32;1747291;81;21576;-80
2020/12/17 08:20:04;;;;;;;44.85;24.00;;;;;;;2.63;78.54;98044.63;1731553;82;21178;-82
2020/12/17 08:22:35;;;;;;;51.83;24.82;;;;;;;2.71;78.28;98040.91;1730924;82;21333;-83
2020/12/17 08:25:05;;;;;;;48.58;23.65;;;;;;;2.78;78.28;98040.67;1730206;83;21147;-79
2020/12/17 08:27:33;;;;;;;48.13;24.52;;;;;;;2.84;77.98;98047.86;1730394;83;21712;-80
2020/12/17 08:30:01;;;;;;;50.98;23.45;;;;;;;2.95;78.04;98054.86;1729909;83;21151;-80
2020/12/17 08:32:31;;;;;;;49.10;23.30;;;;;;;3.08;78.09;98052.69;1743092;81;21163;-82
2020/12/17 08:35:00;;;;;;;49.73;25.32;;;;;;;3.17;77.46;98053.67;1737204;81;21155;-81
2020/12/17 08:37:28;;;;;;;47.00;24.43;;;;;;;3.23;77.62;98046.95;1718401;83;21610;-80
2020/12/17 08:40:04;;;;;;;50.15;26.68;;;;;;;3.30;76.09;98047.56;1718602;83;21166;-79
2020/12/17 08:42:35;;;;;;;49.75;25.17;;;;;;;3.43;77.24;98042.33;1718458;83;21154;-87
2020/12/17 08:45:08;;;;;;;47.55;25.10;;;;;;;3.49;76.87;98040.39;1718864;83;21343;-88
2020/12/17 08:47:42;;;;;;;49.33;26.55;;;;;;;3.55;76.76;98042.79;1717896;83;21178;-80
2020/12/17 08:50:10;;;;;;;51.37;24.90;;;;;;;3.66;76.47;98043.25;1718810;83;21235;-83
2020/12/17 08:52:38;;;;;;;56.58;26.35;;;;;;;3.79;76.48;98033.20;1728949;83;21175;-80
2020/12/17 08:55:09;;;;;;;46.08;24.07;;;;;;;3.87;75.87;98046.80;1752916;82;21114;-81
2020/12/17 08:57:38;;;;;;;46.83;24.05;;;;;;;3.97;75.22;98042.54;1741313;82;21139;-80
2020/12/17 09:00:13;;;;;;;44.50;23.18;;;;;;;4.01;75.42;98034.97;1736193;83;21137;-79
2020/12/17 09:02:42;;;;;;;48.45;19.70;;;;;;;4.18;75.26;98031.72;1736805;82;21172;-82
2020/12/17 09:05:13;;;;;;;48.45;23.57;;;;;;;4.24;73.61;98030.16;1718111;83;21159;-80
2020/12/17 09:07:46;;;;;;;45.28;23.27;;;;;;;4.27;74.84;98035.73;1741516;82;21665;-81
2020/12/17 09:10:15;;;;;;;41.68;19.37;;;;;;;4.34;73.83;98028.88;1752742;82;21150;-82
2020/12/17 09:12:44;;;;;;;48.28;25.77;;;;;;;4.31;74.17;98027.72;1752611;82;21595;-80
2020/12/17 09:15:14;;;;;;;49.08;25.88;;;;;;;4.27;74.27;98034.44;1753124;82;21197;-80
2020/12/17 09:17:42;;;;;;;56.88;27.22;;;;;;;4.21;73.29;98029.83;1767936;80;21148;-84
2020/12/17 09:20:21;;;;;;;30.55;13.62;;;;;;;4.19;73.84;98020.37;1819274;78;21143;-84
2020/12/17 09:22:49;;;;;;;42.67;23.27;;;;;;;4.17;73.85;98020.88;1819282;79;21179;-83
2020/12/17 09:25:29;;;;;;;51.95;27.22;;;;;;;3.85;73.88;98019.09;1806047;78;21584;-81
2020/12/17 09:27:57;;;;;;;52.73;24.55;;;;;;;3.57;74.15;98025.34;1787378;80;21505;-81
2020/12/17 09:30:35;;;;;;;47.73;22.20;;;;;;;3.43;74.82;98021.94;1787827;79;21107;-87
2020/12/17 09:33:06;;;;;;;35.08;16.55;;;;;;;3.46;74.91;98024.88;1832149;78;21148;-85
2020/12/17 09:35:36;;;;;;;36.05;15.48;;;;;;;3.54;75.19;98020.23;1832384;78;21127;-81
2020/12/17 09:38:14;;;;;;;56.90;25.45;;;;;;;3.50;75.10;98009.50;1795566;78;21585;-81
2020/12/17 09:40:44;;;;;;;51.05;25.75;;;;;;;3.50;75.24;98019.94;1711390;82;21307;-79
2020/12/17 09:43:18;;;;;;;57.85;25.68;;;;;;;3.55;75.19;98016.72;1697183;83;21181;-82
2020/12/17 09:45:49;;;;;;;41.18;21.77;;;;;;;3.62;75.19;98010.36;1714389;84;21169;-82
2020/12/17 09:48:23;;;;;;;47.88;26.60;;;;;;;3.73;74.92;98008.20;1714601;84;21157;-82
2020/12/17 09:51:01;;;;;;;38.65;17.60;;;;;;;3.80;74.81;98015.78;1692687;84;21177;-83
2020/12/17 09:53:32;;;;;;;42.95;22.48;;;;;;;3.63;74.33;98009.45;1715017;84;21184;-81
2020/12/17 09:56:01;;;;;;;38.60;18.48;;;;;;;3.37;74.64;98018.23;1715421;84;21154;-84
2020/12/17 09:58:29;;;;;;;47.35;22.55;;;;;;;3.22;74.94;98023.11;1715401;83;21174;-84
2020/12/17 10:00:57;;;;;;;51.25;22.70;;;;;;;3.05;75.39;98025.00;1720642;83;21172;-81
2020/12/17 10:03:25;;;;;;;35.73;16.73;;;;;;;2.97;75.72;98024.41;1719907;83;21175;-83
2020/12/17 10:05:52;;;;;;;35.73;16.77;;;;;;;2.95;76.13;98023.17;1719925;83;21140;-83
2020/12/17 10:08:20;;;;;;;46.25;22.67;;;;;;;2.86;76.15;98018.28;1718092;83;21168;-80
2020/12/17 10:10:47;;;;;;;50.70;24.35;;;;;;;2.70;76.65;98020.98;1718165;83;21622;-82
2020/12/17 10:13:15;;;;;;;28.32;12.70;;;;;;;2.68;76.72;98024.95;1718529;83;21254;-79
2020/12/17 10:15:42;;;;;;;41.88;19.85;;;;;;;2.77;76.81;98026.41;1717555;83;21255;-83
2020/12/17 10:18:10;;;;;;;49.98;24.95;;;;;;;2.80;76.72;98025.85;1746906;81;21150;-81
2020/12/17 10:20:38;;;;;;;48.52;24.32;;;;;;;2.83;76.85;98027.95;1758863;81;21172;-80
2020/12/17 10:23:05;;;;;;;48.40;25.08;;;;;;;2.93;77.11;98030.62;1752812;82;21159;-81
2020/12/17 10:25:33;;;;;;;44.27;23.65;;;;;;;3.06;76.92;98024.56;1750609;82;21564;-84
2020/12/17 10:28:01;;;;;;;48.90;24.50;;;;;;;3.20;76.56;98024.07;1752652;82;21149;-83
2020/12/17 10:30:29;;;;;;;48.65;25.37;;;;;;;3.20;76.21;98018.86;1754147;82;21204;-85
2020/12/17 10:32:57;;;;;;;50.65;26.70;;;;;;;3.21;75.98;98022.70;1717950;82;21285;-86
2020/12/17 10:35:27;;;;;;;47.95;25.55;;;;;;;3.16;75.86;98028.52;1701582;83;21155;-84
2020/12/17 10:37:54;;;;;;;46.18;25.00;;;;;;;3.23;76.18;98021.34;1708813;83;21624;-87
2020/12/17 10:40:22;;;;;;;50.12;26.12;;;;;;;3.31;75.85;98023.67;1726317;83;21191;-84
2020/12/17 10:42:51;;;;;;;51.08;25.27;;;;;;;3.32;75.85;98017.09;1708252;84;21711;-83
2020/12/17 10:45:19;;;;;;;48.50;23.67;;;;;;;3.36;75.66;98015.23;1727185;83;21163;-88
2020/12/17 10:47:48;;;;;;;23.83;10.50;;;;;;;3.40;75.51;98007.23;1711353;84;21706;-88
2020/12/17 10:50:18;;;;;;;47.90;23.92;;;;;;;3.45;75.23;98008.38;1741384;82;21183;-84
2020/12/17 10:52:45;;;;;;;54.67;25.35;;;;;;;3.42;74.94;98005.44;1739424;82;21151;-83
2020/12/17 10:55:13;;;;;;;44.60;23.67;;;;;;;3.50;75.48;98002.55;1739600;82;21175;-85
2020/12/17 10:57:41;;;;;;;47.10;23.98;;;;;;;3.59;75.20;98006.55;1739588;82;21163;-83
2020/12/17 11:00:10;;;;;;;46.08;23.57;;;;;;;3.59;75.23;98006.12;1597785;90;21209;-85
2020/12/17 11:02:38;;;;;;;47.62;25.30;;;;;;;3.61;75.03;98004.75;1598100;90;21642;-87
2020/12/17 11:05:05;;;;;;;52.45;25.37;;;;;;;3.73;75.37;98007.34;1625228;88;21202;-84
2020/12/17 11:07:35;;;;;;;46.45;23.73;;;;;;;3.74;74.93;98000.78;1625405;88;21260;-84
2020/12/17 11:10:04;;;;;;;50.75;24.20;;;;;;;3.81;74.89;98000.53;1616691;87;21190;-81
2020/12/17 11:12:32;;;;;;;52.27;26.48;;;;;;;3.96;75.26;98003.02;1637174;87;21170;-80
2020/12/17 11:15:01;;;;;;;44.40;25.00;;;;;;;4.09;75.03;98008.12;1628157;87;21674;-79
2020/12/17 11:17:44;;;;;;;46.23;26.05;;;;;;;4.27;74.82;98007.03;1794370;79;24869;-79
2020/12/17 11:20:13;;;;;;;42.62;22.60;;;;;;;4.14;73.55;98005.33;1818724;78;21119;-82
2020/12/17 11:22:41;;;;;;;49.23;26.20;;;;;;;3.98;73.67;98004.64;1821219;78;21277;-82
2020/12/17 11:25:08;;;;;;;52.83;26.33;;;;;;;3.80;73.94;97999.70;1801143;78;21131;-83
2020/12/17 11:27:38;;;;;;;43.30;22.98;;;;;;;3.78;74.22;98003.25;1800860;78;21136;-80
2020/12/17 11:30:07;;;;;;;35.17;16.15;;;;;;;3.81;73.98;97994.02;1822666;78;21688;-81
2020/12/17 11:32:35;;;;;;;29.67;13.48;;;;;;;3.68;73.80;97997.08;1824330;78;21340;-82
2020/12/17 11:35:06;;;;;;;36.03;15.83;;;;;;;3.65;74.03;97998.96;1805051;78;21678;-84
2020/12/17 11:37:34;;;;;;;32.45;15.68;;;;;;;3.39;74.09;97998.19;1791715;80;21254;-81
2020/12/17 11:40:02;;;;;;;54.00;24.80;;;;;;;3.24;74.70;97993.07;1757986;81;21581;-80
2020/12/17 11:42:29;;;;;;;28.90;12.37;;;;;;;3.09;74.82;98002.29;1767229;81;21144;-80
2020/12/17 11:44:57;;;;;;;50.38;23.75;;;;;;;3.09;75.06;98007.06;1741815;81;21270;-79
2020/12/17 11:47:24;;;;;;;51.58;23.05;;;;;;;2.91;75.22;98002.50;1745436;81;21286;-82